Time;durP1;ratioP1;P1;durP2;ratioP2;P2;SDS_P1;SDS_P2;PMS_P1;PMS_P2;Temp;Humidity;BMP_temperature;BMP_pressure;BME280_temperature;BME280_humidity;BME280_pressure;Samples;Min_cycle;Max_cycle;Signal;HPM_P1;HPM_P2
2023/05/24 00:00:23;;;;;;;46.53;8.27;;;7.80;74.80;;;;;;6109162;23;20067;-91
2023/05/24 00:02:49;;;;;;;32.03;8.07;;;7.90;74.70;;;;;;6106696;23;20025;-90
2023/05/24 00:05:20;;;;;;;39.80;8.23;;;8.00;74.70;;;;;;6109155;23;20024;-92
2023/05/24 00:08:18;;;;;;;;;;;8.00;74.70;;;;;;6096510;23;20021;-92
2023/05/24 00:11:21;;;;;;;36.20;8.03;;;8.10;75.20;;;;;;6134480;23;19920;-92
2023/05/24 00:14:05;;;;;;;;;;;;;;;;;;;;;
2023/05/24 00:16:41;;;;;;;;;;;;;;;;;;;;;
2023/05/24 00:19:37;;;;;;;40.53;8.53;;;8.40;74.40;;;;;;6140479;23;20037;-93
2023/05/24 00:22:10;;;;;;;43.30;7.90;;;8.40;74.40;;;;;;6133326;23;20017;-91
2023/05/24 00:24:39;;;;;;;36.07;7.37;;;8.50;74.40;;;;;;6094696;23;20415;-91
2023/05/24 00:27:35;;;;;;;35.57;7.63;;;8.50;74.40;;;;;;6126268;23;20021;-92
2023/05/24 00:30:11;;;;;;;30.90;8.33;;;8.60;74.20;;;;;;6116087;23;20025;-91
2023/05/24 00:32:59;;;;;;;33.13;7.83;;;8.60;74.00;;;;;;6077412;23;21297;-92
2023/05/24 00:35:45;;;;;;;32.60;7.67;;;8.60;73.80;;;;;;6005136;23;20034;-91
2023/05/24 00:38:13;;;;;;;28.30;7.40;;;8.60;73.70;;;;;;6121359;23;20017;-91
2023/05/24 00:40:44;;;;;;;30.87;7.20;;;8.60;73.70;;;;;;6103656;23;20022;-90
2023/05/24 00:43:44;;;;;;;;;;;;;;;;;;;;;
2023/05/24 00:46:23;;;;;;;29.63;5.93;;;8.60;73.60;;;;;;6088576;23;20045;-92
2023/05/24 00:48:50;;;;;;;34.13;7.70;;;8.60;73.60;;;;;;6082909;23;20018;-90
2023/05/24 00:51:54;;;;;;;38.17;7.73;;;8.60;73.50;;;;;;6103770;23;20105;-93
2023/05/24 00:54:45;;;;;;;37.23;7.80;;;8.60;73.50;;;;;;6102372;23;20051;-92
2023/05/24 00:57:31;;;;;;;35.53;7.93;;;8.60;73.40;;;;;;6081272;23;20053;-93
2023/05/24 01:00:03;;;;;;;25.87;7.57;;;8.60;73.40;;;;;;6061206;23;20076;-90
2023/05/24 01:02:29;;;;;;;29.97;7.63;;;8.60;73.40;;;;;;6101958;23;20018;-90
2023/05/24 01:05:00;;;;;;;36.47;8.20;;;8.50;73.30;;;;;;6079146;23;20461;-92
2023/05/24 01:07:52;;;;;;;27.92;8.60;;;8.50;73.30;;;;;;6095894;23;20466;-90
2023/05/24 01:10:39;;;;;;;28.13;6.87;;;8.50;73.40;;;;;;6128052;23;20022;-90
2023/05/24 01:13:38;;;;;;;31.07;7.37;;;8.40;73.40;;;;;;6125590;23;20045;-90
2023/05/24 01:16:13;;;;;;;35.20;7.80;;;8.40;73.50;;;;;;6062193;23;20017;-92
2023/05/24 01:18:51;;;;;;;32.90;7.30;;;8.40;73.50;;;;;;6097125;23;20026;-90
2023/05/24 01:21:58;;;;;;;26.77;7.27;;;8.40;73.50;;;;;;6103972;23;20021;-93
2023/05/24 01:24:52;;;;;;;28.20;7.37;;;8.30;73.50;;;;;;6102881;23;20013;-91
2023/05/24 01:27:19;;;;;;;28.87;7.73;;;8.30;73.50;;;;;;6121625;23;20547;-91
2023/05/24 01:29:52;;;;;;;35.33;7.60;;;8.20;73.40;;;;;;6111546;23;20483;-90
2023/05/24 01:32:39;;;;;;;;;;;;;;;;;;;;;
2023/05/24 01:35:41;;;;;;;28.00;7.37;;;8.20;73.30;;;;;;6135961;23;20017;-93
2023/05/24 01:38:09;;;;;;;28.30;7.27;;;8.20;73.30;;;;;;6099799;23;20088;-92
2023/05/24 01:40:43;;;;;;;28.27;6.63;;;8.20;73.30;;;;;;6104595;23;20352;-92
2023/05/24 01:43:12;;;;;;;26.60;6.63;;;8.20;73.30;;;;;;6128061;23;20353;-93
2023/05/24 01:46:07;;;;;;;31.33;6.67;;;8.20;73.40;;;;;;6128619;23;20554;-93
2023/05/24 01:52:30;;;;;;;32.97;7.03;;;8.30;73.50;;;;;;6129034;23;20026;-91
2023/05/24 01:54:58;;;;;;;30.73;6.93;;;8.30;73.50;;;;;;6095170;23;20017;-90
2023/05/24 01:57:25;;;;;;;29.20;6.50;;;8.30;73.40;;;;;;6097498;23;20044;-90
2023/05/24 01:59:55;;;;;;;29.60;6.33;;;8.30;73.40;;;;;;6129387;23;20025;-91
2023/05/24 02:02:41;;;;;;;32.87;7.67;;;8.40;73.50;;;;;;6110018;23;20086;-92
2023/05/24 02:05:13;;;;;;;33.83;5.97;;;8.40;73.50;;;;;;6101033;23;20021;-93
2023/05/24 02:07:45;;;;;;;29.77;7.20;;;8.40;73.50;;;;;;6106761;23;20049;-92
2023/05/24 02:10:14;;;;;;;28.27;6.83;;;8.40;73.40;;;;;;6105796;23;20021;-92
2023/05/24 02:12:42;;;;;;;31.23;6.67;;;8.40;73.50;;;;;;6125254;23;20021;-91
2023/05/24 02:15:20;;;;;;;33.97;6.73;;;8.50;73.50;;;;;;6106669;23;20018;-96
2023/05/24 02:17:46;;;;;;;26.30;6.27;;;8.50;73.50;;;;;;6098026;23;20017;-90
2023/05/24 02:20:12;;;;;;;24.83;6.00;;;8.50;73.50;;;;;;6129609;23;20017;-89
2023/05/24 02:22:38;;;;;;;27.50;6.40;;;8.50;73.40;;;;;;6127730;23;20414;-89
2023/05/24 02:25:05;;;;;;;35.13;7.40;;;8.50;73.40;;;;;;6129156;23;20041;-90
2023/05/24 02:27:31;;;;;;;33.83;6.83;;;8.50;73.40;;;;;;6121437;23;20017;-91
2023/05/24 02:29:56;;;;;;;23.70;6.27;;;8.60;73.40;;;;;;6129303;23;20460;-90
2023/05/24 02:32:22;;;;;;;33.37;6.70;;;8.60;73.40;;;;;;6126736;23;20463;-91
2023/05/24 02:34:48;;;;;;;29.23;7.00;;;8.60;73.40;;;;;;6081323;23;20088;-92
2023/05/24 02:37:14;;;;;;;26.67;6.30;;;8.60;73.50;;;;;;6148065;23;20021;-91
2023/05/24 02:39:42;;;;;;;35.37;6.80;;;8.60;73.60;;;;;;6104089;23;20017;-89
2023/05/24 02:42:10;;;;;;;32.93;6.83;;;8.60;73.60;;;;;;6079559;23;20100;-90
2023/05/24 02:44:36;;;;;;;32.10;6.63;;;8.60;73.60;;;;;;6104646;23;20459;-90
2023/05/24 02:47:01;;;;;;;26.50;6.37;;;8.60;73.60;;;;;;6075582;23;20049;-90
2023/05/24 02:49:27;;;;;;;23.97;6.23;;;8.60;73.60;;;;;;6078454;23;20103;-89
2023/05/24 02:51:53;;;;;;;26.87;5.90;;;8.70;73.60;;;;;;6129342;23;20067;-90
2023/05/24 02:54:19;;;;;;;24.43;6.60;;;8.70;73.60;;;;;;6103263;23;20353;-91
2023/05/24 02:56:44;;;;;;;27.63;5.93;;;8.80;73.60;;;;;;6075521;23;20775;-93
2023/05/24 02:59:11;;;;;;;28.50;6.87;;;8.80;73.50;;;;;;6102142;23;20028;-90
2023/05/24 03:01:37;;;;;;;25.57;5.67;;;8.80;73.50;;;;;;6080508;23;20025;-89
2023/05/24 03:04:03;;;;;;;28.93;6.60;;;8.80;73.40;;;;;;6102522;23;20352;-89
2023/05/24 03:06:28;;;;;;;24.30;5.73;;;8.80;73.40;;;;;;6100897;23;20017;-90
2023/05/24 03:08:55;;;;;;;31.63;6.53;;;8.80;73.30;;;;;;6100790;23;20029;-90
2023/05/24 03:11:25;;;;;;;27.93;6.50;;;8.80;73.40;;;;;;6128862;23;20024;-90
2023/05/24 03:13:50;;;;;;;31.17;6.43;;;8.80;73.40;;;;;;6103110;23;20511;-90
2023/05/24 03:16:19;;;;;;;26.33;6.50;;;8.80;73.40;;;;;;6055068;23;20104;-91
2023/05/24 03:18:45;;;;;;;27.57;6.20;;;8.90;73.40;;;;;;6099329;23;20029;-90
2023/05/24 03:21:11;;;;;;;29.03;6.37;;;8.90;73.40;;;;;;6080789;23;20344;-91
2023/05/24 03:23:37;;;;;;;23.57;6.20;;;8.90;73.30;;;;;;6102915;23;20013;-89
2023/05/24 03:26:03;;;;;;;23.67;6.03;;;8.90;73.20;;;;;;6104642;23;20013;-89
2023/05/24 03:28:29;;;;;;;30.20;6.17;;;9.00;73.30;;;;;;6097344;23;20444;-88
2023/05/24 03:30:55;;;;;;;23.43;5.73;;;9.00;73.20;;;;;;6129655;23;20027;-90
2023/05/24 03:33:20;;;;;;;22.50;5.90;;;9.00;73.20;;;;;;6107382;23;20028;-90
2023/05/24 03:35:46;;;;;;;30.27;6.30;;;9.00;73.30;;;;;;6133746;23;20470;-91
2023/05/24 03:38:12;;;;;;;30.57;6.27;;;9.00;73.20;;;;;;6127773;23;20036;-88
2023/05/24 03:40:38;;;;;;;23.60;6.40;;;9.00;73.20;;;;;;6133914;23;20017;-90
2023/05/24 03:43:04;;;;;;;26.63;6.33;;;9.00;73.20;;;;;;6131642;23;20408;-91
2023/05/24 03:45:30;;;;;;;25.63;6.47;;;9.10;73.20;;;;;;6108821;23;20021;-90
2023/05/24 03:47:55;;;;;;;23.43;6.20;;;9.10;73.10;;;;;;6125792;23;20498;-91
2023/05/24 03:50:21;;;;;;;33.00;6.20;;;9.10;73.20;;;;;;6133525;23;20040;-90
2023/05/24 03:52:47;;;;;;;21.33;6.07;;;9.10;73.10;;;;;;6132038;23;20027;-89
2023/05/24 03:55:13;;;;;;;27.60;5.77;;;9.20;73.20;;;;;;6133474;23;20028;-89
2023/05/24 03:57:41;;;;;;;26.70;6.00;;;9.20;73.20;;;;;;6101410;23;20056;-89
2023/05/24 04:00:08;;;;;;;35.03;6.33;;;9.20;73.20;;;;;;6158326;23;20095;-90
2023/05/24 04:02:36;;;;;;;26.93;7.07;;;9.20;73.20;;;;;;6106439;23;20025;-89
2023/05/24 04:05:03;;;;;;;26.70;6.30;;;9.20;73.20;;;;;;6157993;23;20017;-89
2023/05/24 04:07:32;;;;;;;27.97;6.60;;;9.20;73.30;;;;;;6151400;23;20024;-89
2023/05/24 04:09:58;;;;;;;31.77;6.37;;;9.20;73.30;;;;;;6133471;23;20020;-89
2023/05/24 04:12:24;;;;;;;35.83;7.07;;;9.30;73.20;;;;;;6155128;23;20017;-89
2023/05/24 04:14:51;;;;;;;29.70;6.73;;;9.30;73.20;;;;;;6132857;23;20083;-89
2023/05/24 04:17:17;;;;;;;25.37;6.13;;;9.40;73.20;;;;;;6126436;23;20017;-90
2023/05/24 04:19:45;;;;;;;26.07;6.90;;;9.40;73.20;;;;;;6109707;23;20075;-90
2023/05/24 04:22:11;;;;;;;24.43;6.30;;;9.40;73.20;;;;;;6107704;23;20079;-90
2023/05/24 04:24:37;;;;;;;33.60;6.33;;;9.40;73.20;;;;;;6182392;23;20021;-91
2023/05/24 04:27:03;;;;;;;32.90;6.80;;;9.40;73.20;;;;;;6150510;23;20070;-88
2023/05/24 04:29:32;;;;;;;26.37;6.70;;;9.40;73.20;;;;;;6132076;23;20021;-90
2023/05/24 04:32:00;;;;;;;29.17;7.03;;;9.40;73.20;;;;;;6159926;23;20486;-90
2023/05/24 04:34:28;;;;;;;22.57;6.27;;;9.40;73.20;;;;;;6182269;23;20024;-90
2023/05/24 04:36:55;;;;;;;32.43;6.87;;;9.40;73.10;;;;;;6155359;23;20013;-89
2023/05/24 04:39:20;;;;;;;25.37;6.57;;;9.40;73.20;;;;;;6133970;23;20383;-90
2023/05/24 04:41:49;;;;;;;25.17;6.10;;;9.40;73.20;;;;;;6133956;23;20052;-89
2023/05/24 04:44:16;;;;;;;29.00;6.33;;;9.40;73.20;;;;;;6131955;23;20043;-91
2023/05/24 04:46:41;;;;;;;30.00;6.50;;;9.30;73.20;;;;;;6130687;23;20491;-92
2023/05/24 04:49:07;;;;;;;30.67;6.53;;;9.30;73.20;;;;;;6131313;23;20021;-91
2023/05/24 04:51:37;;;;;;;35.90;6.67;;;9.20;73.20;;;;;;6133442;23;20036;-89
2023/05/24 04:54:07;;;;;;;28.43;7.33;;;9.20;73.10;;;;;;6132846;23;20028;-92
2023/05/24 04:56:37;;;;;;;26.20;6.63;;;9.20;73.20;;;;;;6132179;23;20009;-94
2023/05/24 04:59:04;;;;;;;23.13;5.90;;;9.20;73.20;;;;;;6133112;23;20279;-90
2023/05/24 05:01:33;;;;;;;30.83;6.33;;;9.20;73.20;;;;;;6134568;23;20369;-92
2023/05/24 05:03:59;;;;;;;24.53;5.97;;;9.30;73.20;;;;;;6183209;23;20027;-90
2023/05/24 05:06:25;;;;;;;30.80;6.90;;;9.30;73.20;;;;;;6108253;23;20101;-94
2023/05/24 05:08:51;;;;;;;26.93;6.10;;;9.30;73.20;;;;;;6131521;23;20040;-92
2023/05/24 05:11:19;;;;;;;29.00;6.60;;;9.40;73.20;;;;;;6135386;23;20095;-90
2023/05/24 05:13:45;;;;;;;31.27;6.60;;;9.40;73.20;;;;;;6109570;23;20023;-89
2023/05/24 05:16:11;;;;;;;25.87;6.20;;;9.40;73.20;;;;;;6134345;23;20013;-93
2023/05/24 05:18:45;;;;;;;28.83;6.00;;;9.40;73.30;;;;;;6156315;23;20044;-91
2023/05/24 05:21:11;;;;;;;33.03;6.80;;;9.50;73.30;;;;;;6159643;23;20013;-89
2023/05/24 05:23:38;;;;;;;24.40;6.60;;;9.50;73.20;;;;;;6132981;23;20021;-90
2023/05/24 05:26:06;;;;;;;20.67;5.70;;;9.60;73.20;;;;;;6133844;23;20340;-92
2023/05/24 05:28:32;;;;;;;32.37;6.50;;;9.60;73.20;;;;;;6079398;23;20510;-91
2023/05/24 05:30:58;;;;;;;29.10;6.20;;;9.60;73.20;;;;;;6104550;23;20511;-95
2023/05/24 05:33:24;;;;;;;28.53;6.77;;;9.70;73.10;;;;;;6128215;23;20021;-92
2023/05/24 05:35:50;;;;;;;27.10;5.60;;;9.70;73.20;;;;;;6130247;23;20409;-91
2023/05/24 05:38:16;;;;;;;29.03;6.07;;;9.80;73.20;;;;;;6100139;23;20021;-91
2023/05/24 05:40:42;;;;;;;23.23;6.10;;;9.80;73.20;;;;;;6105846;23;20044;-92
2023/05/24 05:43:10;;;;;;;26.20;6.67;;;9.90;73.10;;;;;;6153097;23;20487;-92
2023/05/24 05:45:36;;;;;;;30.00;6.77;;;10.00;73.20;;;;;;6130279;23;20018;-90
2023/05/24 05:48:02;;;;;;;25.40;5.97;;;10.00;73.10;;;;;;6101360;23;20041;-90
2023/05/24 05:50:28;;;;;;;25.27;6.53;;;10.00;73.00;;;;;;6082214;23;20052;-89
2023/05/24 05:52:54;;;;;;;29.90;6.97;;;10.00;73.00;;;;;;6080006;23;20534;-89
2023/05/24 05:55:20;;;;;;;28.33;6.57;;;10.00;73.10;;;;;;6082027;23;20025;-90
2023/05/24 05:57:46;;;;;;;29.23;6.23;;;10.10;73.00;;;;;;6124219;23;20029;-91
2023/05/24 06:00:12;;;;;;;22.13;5.40;;;10.10;73.00;;;;;;6082064;23;20017;-90
2023/05/24 06:02:38;;;;;;;25.33;5.13;;;10.10;72.90;;;;;;6104741;23;20029;-92
2023/05/24 06:05:06;;;;;;;25.23;6.30;;;10.20;72.80;;;;;;6082079;23;20341;-89
2023/05/24 06:07:32;;;;;;;20.10;5.00;;;10.20;72.70;;;;;;6101358;23;20382;-90
2023/05/24 06:09:58;;;;;;;23.00;4.97;;;10.20;72.60;;;;;;6105857;23;20052;-89
2023/05/24 06:12:27;;;;;;;18.60;5.03;;;10.30;72.50;;;;;;6103480;23;20017;-93
2023/05/24 06:14:58;;;;;;;17.93;5.53;;;10.30;72.50;;;;;;6130024;23;20115;-92
2023/05/24 06:17:27;;;;;;;25.03;4.90;;;10.40;72.50;;;;;;6087638;23;20079;-90
2023/05/24 06:20:09;;;;;;;22.13;5.20;;;10.40;72.40;;;;;;6130385;23;20346;-92
2023/05/24 06:22:36;;;;;;;20.83;4.80;;;10.50;72.30;;;;;;6128250;23;20029;-90
2023/05/24 06:25:04;;;;;;;21.83;4.83;;;10.50;72.20;;;;;;6130074;23;20021;-89
2023/05/24 06:27:56;;;;;;;18.88;4.40;;;10.50;71.90;;;;;;6099256;23;20020;-93
2023/05/24 06:31:00;;;;;;;18.30;4.47;;;10.50;71.60;;;;;;6109140;23;20017;-92
2023/05/24 06:33:44;;;;;;;17.98;4.35;;;10.50;71.20;;;;;;6030672;23;20046;-96
2023/05/24 06:43:26;;;;;;;15.50;4.37;;;10.60;70.80;;;;;;6005815;23;20102;-92
2023/05/24 06:45:52;;;;;;;21.37;4.93;;;10.70;71.10;;;;;;6018550;23;20111;-92
2023/05/24 06:48:18;;;;;;;17.30;4.23;;;10.90;71.00;;;;;;6010783;23;20115;-93
2023/05/24 06:50:58;;;;;;;17.97;4.37;;;11.00;70.70;;;;;;5971410;23;20014;-94
2023/05/24 06:53:24;;;;;;;22.23;5.22;;;11.00;70.50;;;;;;5981025;23;20086;-94
2023/05/24 06:55:53;;;;;;;17.85;5.00;;;11.10;70.80;;;;;;6042777;23;20018;-94
2023/05/24 06:58:24;;;;;;;20.08;4.95;;;11.10;70.90;;;;;;6013407;23;20027;-93
2023/05/24 07:00:53;;;;;;;16.77;4.90;;;11.30;70.90;;;;;;6019875;23;20026;-92
2023/05/24 07:03:20;;;;;;;20.13;5.13;;;11.40;70.50;;;;;;6036320;23;20144;-91
2023/05/24 07:05:45;;;;;;;20.50;5.43;;;11.50;70.50;;;;;;6087541;23;20022;-94
2023/05/24 07:08:11;;;;;;;21.83;5.20;;;11.50;70.50;;;;;;6066923;23;20453;-95
2023/05/24 07:10:37;;;;;;;24.10;5.75;;;11.70;70.80;;;;;;6058463;23;20025;-95
2023/05/24 07:13:12;;;;;;;24.58;5.47;;;11.70;70.70;;;;;;6062866;23;20318;-92
2023/05/24 07:15:45;;;;;;;18.98;4.82;;;11.80;70.00;;;;;;6113001;23;20017;-91
2023/05/24 07:18:28;;;;;;;19.50;5.10;;;11.90;70.00;;;;;;6083607;23;20653;-95
2023/05/24 07:20:53;;;;;;;17.67;4.43;;;11.90;70.30;;;;;;6086978;23;20107;-93
2023/05/24 07:23:25;;;;;;;14.38;4.57;;;12.00;70.10;;;;;;6064184;23;20109;-94
2023/05/24 07:25:53;;;;;;;19.02;5.43;;;12.00;69.70;;;;;;6066480;23;20468;-95
2023/05/24 07:28:27;;;;;;;19.38;5.30;;;12.00;69.60;;;;;;6083596;23;20025;-94
2023/05/24 07:31:17;;;;;;;19.27;5.20;;;12.00;69.70;;;;;;6109468;23;20453;-92
2023/05/24 07:34:07;;;;;;;22.17;5.07;;;12.00;69.30;;;;;;6103116;23;20028;-95
2023/05/24 07:36:41;;;;;;;16.95;4.65;;;12.00;69.40;;;;;;6095867;23;20009;-95
2023/05/24 07:39:18;;;;;;;21.27;4.93;;;12.00;69.20;;;;;;6114723;23;20238;-94
2023/05/24 07:42:22;;;;;;;13.00;4.53;;;12.00;69.30;;;;;;6109263;23;20021;-95
2023/05/24 07:44:50;;;;;;;19.35;4.95;;;12.00;69.00;;;;;;6119973;23;20021;-91
2023/05/24 07:47:19;;;;;;;19.65;4.57;;;11.90;68.90;;;;;;6111396;23;20103;-95
2023/05/24 07:49:53;;;;;;;;;;;11.90;68.90;;;;;;6118393;23;20017;-93
2023/05/24 07:52:23;;;;;;;;;;;11.90;68.40;;;;;;6115854;23;20169;-95
2023/05/24 07:54:51;;;;;;;17.58;4.88;;;11.90;68.50;;;;;;6118753;23;19916;-93
2023/05/24 07:57:20;;;;;;;21.77;5.30;;;11.90;69.20;;;;;;6079852;23;20100;-95
2023/05/24 07:59:46;;;;;;;23.17;5.75;;;11.90;69.10;;;;;;6111919;23;20025;-94
2023/05/24 08:02:17;;;;;;;14.50;4.40;;;11.90;69.20;;;;;;6118242;23;20027;-90
2023/05/24 08:04:43;;;;;;;16.17;4.07;;;12.00;69.40;;;;;;6067267;23;20744;-94
2023/05/24 08:07:09;;;;;;;11.13;4.00;;;12.10;69.20;;;;;;6110767;23;20021;-94
2023/05/24 08:09:54;;;;;;;11.75;3.50;;;12.20;68.70;;;;;;6116063;23;20448;-94
2023/05/24 08:12:31;;;;;;;9.60;3.10;;;12.20;68.40;;;;;;6114260;23;20720;-94
2023/05/24 08:14:58;;;;;;;10.95;3.33;;;12.20;68.30;;;;;;6095393;23;20021;-91
2023/05/24 08:17:25;;;;;;;12.52;3.65;;;12.20;68.30;;;;;;6067793;23;20111;-91
2023/05/24 08:19:51;;;;;;;13.88;3.40;;;12.30;68.00;;;;;;6096566;23;20609;-95
2023/05/24 08:22:20;;;;;;;10.60;3.30;;;12.30;68.00;;;;;;6089709;23;20071;-93
2023/05/24 08:24:46;;;;;;;16.67;3.55;;;12.40;67.70;;;;;;6092717;23;20271;-93
2023/05/24 08:27:33;;;;;;;;;;;;;;;;;;;;;
2023/05/24 08:30:06;;;;;;;10.90;3.25;;;12.40;67.30;;;;;;6117837;23;20021;-93
2023/05/24 08:32:35;;;;;;;14.18;3.75;;;12.40;67.70;;;;;;6116890;23;20017;-92
2023/05/24 08:35:01;;;;;;;9.93;3.42;;;12.40;67.20;;;;;;6126018;23;20020;-92
2023/05/24 08:37:32;;;;;;;11.63;3.15;;;12.50;67.20;;;;;;6129058;23;20013;-93
2023/05/24 08:40:14;;;;;;;13.73;3.15;;;12.50;67.10;;;;;;6106466;23;20527;-94
2023/05/24 08:42:45;;;;;;;16.13;3.50;;;12.50;66.60;;;;;;6108810;23;20028;-92
2023/05/24 08:45:29;;;;;;;11.25;3.28;;;12.50;67.20;;;;;;6131659;23;20025;-93
2023/05/24 08:47:58;;;;;;;10.75;3.63;;;12.50;67.10;;;;;;6104910;23;20108;-92
2023/05/24 08:51:00;;;;;;;12.25;3.25;;;12.50;67.20;;;;;;6121249;23;20028;-92
2023/05/24 08:53:29;;;;;;;12.00;3.20;;;12.70;65.90;;;;;;6071114;23;20018;-94
2023/05/24 08:56:16;;;;;;;9.63;3.50;;;12.70;66.60;;;;;;6117124;23;20035;-93
2023/05/24 08:58:50;;;;;;;14.18;3.70;;;12.70;66.50;;;;;;6100578;23;20802;-93
2023/05/24 09:01:19;;;;;;;10.98;3.35;;;12.70;66.50;;;;;;6127776;23;20017;-93
2023/05/24 09:03:46;;;;;;;13.55;3.65;;;12.70;66.60;;;;;;6124753;23;20021;-93
2023/05/24 09:06:17;;;;;;;15.32;3.40;;;12.70;66.80;;;;;;6125767;23;20087;-95
2023/05/24 09:08:46;;;;;;;10.07;3.65;;;12.80;66.90;;;;;;6129959;23;20428;-92
2023/05/24 09:11:17;;;;;;;14.95;4.00;;;12.80;67.10;;;;;;6148030;23;20144;-91
2023/05/24 09:13:46;;;;;;;;;;;12.80;67.00;;;;;;6145720;23;20017;-91
2023/05/24 09:16:26;;;;;;;12.93;3.55;;;12.80;66.30;;;;;;6125474;23;19916;-94
2023/05/24 09:18:52;;;;;;;11.05;3.83;;;12.90;66.80;;;;;;6108746;23;20028;-91
2023/05/24 09:21:19;;;;;;;9.90;3.30;;;12.90;66.70;;;;;;6124614;23;20317;-93
2023/05/24 09:23:47;;;;;;;9.63;3.08;;;13.00;66.70;;;;;;6176181;23;20452;-91
2023/05/24 09:26:14;;;;;;;14.43;3.13;;;13.10;66.40;;;;;;6153090;23;20363;-92
2023/05/24 09:28:40;;;;;;;10.18;2.92;;;13.10;66.10;;;;;;6102146;23;20025;-91
2023/05/24 09:31:07;;;;;;;11.52;3.22;;;13.10;66.00;;;;;;6128132;23;20432;-92
2023/05/24 09:33:34;;;;;;;12.48;3.00;;;13.10;66.00;;;;;;6086901;23;20815;-92
2023/05/24 09:36:09;;;;;;;13.95;3.58;;;13.20;66.00;;;;;;6125373;23;20068;-93
2023/05/24 09:38:35;;;;;;;14.27;3.80;;;13.10;65.90;;;;;;6123019;23;20021;-93
2023/05/24 09:41:04;;;;;;;16.35;3.65;;;13.10;66.40;;;;;;6078345;23;20023;-92
2023/05/24 09:43:47;;;;;;;9.88;3.55;;;13.10;66.50;;;;;;6124641;23;20021;-91
2023/05/24 09:46:20;;;;;;;12.70;3.67;;;13.10;66.40;;;;;;6150648;23;20020;-96
2023/05/24 09:48:57;;;;;;;12.57;3.28;;;13.10;66.40;;;;;;6120649;23;20060;-92
2023/05/24 09:51:23;;;;;;;8.52;3.40;;;13.20;66.00;;;;;;6153228;23;20019;-95
2023/05/24 09:53:51;;;;;;;11.30;3.22;;;13.20;66.10;;;;;;6129807;23;20017;-90
2023/05/24 09:56:39;;;;;;;14.45;4.07;;;13.30;66.20;;;;;;6129453;23;20449;-91
2023/05/24 09:59:07;;;;;;;14.90;4.20;;;13.30;66.40;;;;;;6138037;23;20024;-90
2023/05/24 10:01:45;;;;;;;7.95;3.05;;;13.30;66.80;;;;;;6127078;23;20769;-92
2023/05/24 10:04:12;;;;;;;11.75;3.58;;;13.30;66.40;;;;;;6088949;23;20395;-92
2023/05/24 10:06:41;;;;;;;10.20;3.45;;;13.30;66.60;;;;;;6122792;23;20105;-95
2023/05/24 10:09:08;;;;;;;14.77;4.03;;;13.30;66.90;;;;;;6091375;23;20025;-91
2023/05/24 10:11:44;;;;;;;17.05;4.32;;;13.50;67.10;;;;;;6114764;23;20200;-94
2023/05/24 10:14:13;;;;;;;18.75;4.18;;;13.50;67.10;;;;;;6118059;23;20029;-94
2023/05/24 10:16:38;;;;;;;13.52;4.00;;;13.40;67.00;;;;;;6128622;23;20013;-93
2023/05/24 10:19:20;;;;;;;17.77;4.50;;;13.40;67.00;;;;;;6132079;23;20379;-92
2023/05/24 10:21:48;;;;;;;17.15;4.20;;;13.40;67.10;;;;;;6157086;23;20021;-94
2023/05/24 10:24:19;;;;;;;15.93;4.40;;;13.30;67.00;;;;;;6124186;23;20125;-92
2023/05/24 10:26:47;;;;;;;16.90;4.57;;;13.30;67.20;;;;;;6123369;23;20227;-90
2023/05/24 10:29:30;;;;;;;12.13;3.95;;;13.30;67.40;;;;;;6174662;23;20088;-92
2023/05/24 10:31:57;;;;;;;17.10;4.22;;;13.40;67.20;;;;;;6122865;23;20125;-92
2023/05/24 10:34:23;;;;;;;19.52;5.13;;;13.50;67.40;;;;;;6147677;23;20025;-91
2023/05/24 10:36:50;;;;;;;17.27;4.13;;;13.50;67.30;;;;;;6147399;23;20017;-92
2023/05/24 10:39:21;;;;;;;16.00;4.53;;;13.40;67.30;;;;;;6148398;23;20700;-91
2023/05/24 10:41:50;;;;;;;19.00;4.35;;;13.50;67.40;;;;;;6148963;23;20025;-91
2023/05/24 10:44:19;;;;;;;14.73;3.83;;;13.50;67.00;;;;;;6147761;23;20365;-89
2023/05/24 10:47:10;;;;;;;14.65;3.97;;;13.50;66.70;;;;;;6122470;23;20017;-94
2023/05/24 10:49:38;;;;;;;15.65;3.88;;;13.60;66.80;;;;;;6139251;23;20029;-92
2023/05/24 10:52:08;;;;;;;11.63;3.67;;;13.60;67.00;;;;;;6153873;23;20017;-90
2023/05/24 10:54:35;;;;;;;13.45;3.90;;;13.70;66.70;;;;;;6131874;23;20460;-90
2023/05/24 10:57:35;;;;;;;19.15;4.10;;;13.90;66.50;;;;;;6127232;23;20105;-93
2023/05/24 11:00:19;;;;;;;17.08;4.43;;;13.90;66.20;;;;;;6134240;23;20027;-90
2023/05/24 11:02:48;;;;;;;13.07;4.93;;;14.00;65.80;;;;;;6131072;23;20102;-93
2023/05/24 11:05:15;;;;;;;17.23;4.07;;;13.90;66.00;;;;;;6128497;23;20009;-89
2023/05/24 11:07:42;;;;;;;18.30;5.10;;;13.90;66.00;;;;;;6105308;23;20783;-93
2023/05/24 11:10:33;;;;;;;16.65;4.30;;;13.80;66.20;;;;;;6126292;23;20125;-92
2023/05/24 11:13:01;;;;;;;;;;;13.80;66.10;;;;;;6113541;23;20025;-90
2023/05/24 11:15:30;;;;;;;13.13;3.50;;;13.90;66.00;;;;;;6150926;23;19926;-92
2023/05/24 11:18:12;;;;;;;14.57;4.32;;;13.90;65.90;;;;;;6171739;23;20025;-94
2023/05/24 11:20:44;;;;;;;16.27;3.90;;;13.90;65.40;;;;;;6174251;23;20039;-93
2023/05/24 11:23:16;;;;;;;;;;;13.70;65.60;;;;;;6119470;23;20025;-94
2023/05/24 11:25:42;;;;;;;13.57;3.85;;;13.90;65.20;;;;;;6125217;23;19966;-90
2023/05/24 11:28:12;;;;;;;14.40;4.20;;;14.00;66.10;;;;;;6095485;23;20021;-91
2023/05/24 11:30:45;;;;;;;13.73;4.00;;;14.00;65.50;;;;;;6150156;23;20009;-92
2023/05/24 11:33:22;;;;;;;15.13;3.78;;;13.90;65.40;;;;;;6128041;23;20061;-92
2023/05/24 11:35:50;;;;;;;14.30;3.90;;;13.90;65.20;;;;;;6100568;23;20024;-92
2023/05/24 11:38:20;;;;;;;16.30;4.60;;;13.70;65.40;;;;;;6143379;23;20025;-92
2023/05/24 11:40:50;;;;;;;16.77;4.45;;;13.80;65.80;;;;;;6148022;23;20025;-94
2023/05/24 11:43:18;;;;;;;19.45;4.35;;;13.90;66.00;;;;;;6146354;23;20052;-93
2023/05/24 11:45:47;;;;;;;13.68;4.10;;;13.90;65.80;;;;;;6123357;23;20051;-93
2023/05/24 11:48:14;;;;;;;18.15;4.15;;;13.90;66.00;;;;;;6114862;23;20049;-94
2023/05/24 11:50:42;;;;;;;17.77;4.20;;;13.90;65.90;;;;;;6124513;23;20132;-92
2023/05/24 11:53:16;;;;;;;16.10;4.22;;;13.90;66.00;;;;;;6145231;23;20024;-92
2023/05/24 11:55:42;;;;;;;17.15;4.35;;;14.00;66.10;;;;;;6147412;23;20490;-91
2023/05/24 11:58:29;;;;;;;18.83;4.70;;;14.10;66.20;;;;;;6112398;23;20021;-93
2023/05/24 12:00:55;;;;;;;13.73;3.88;;;14.10;66.10;;;;;;6120046;23;20017;-91
2023/05/24 12:03:21;;;;;;;15.55;4.63;;;14.10;65.80;;;;;;6076861;23;20024;-93
2023/05/24 12:05:51;;;;;;;19.75;4.03;;;14.10;65.80;;;;;;6101525;23;20021;-92
2023/05/24 12:08:17;;;;;;;17.92;4.07;;;14.10;65.90;;;;;;6092565;23;20025;-93
2023/05/24 12:10:43;;;;;;;17.83;4.40;;;14.10;65.50;;;;;;6147567;23;20559;-91
2023/05/24 12:13:24;;;;;;;13.10;3.50;;;14.10;65.50;;;;;;6120413;23;20013;-90
2023/05/24 12:15:54;;;;;;;10.57;3.28;;;14.10;65.30;;;;;;6148167;23;20021;-91
2023/05/24 12:18:59;;;;;;;16.52;4.13;;;14.00;65.10;;;;;;6121846;23;20393;-96
2023/05/24 12:21:28;;;;;;;14.65;3.70;;;13.90;65.10;;;;;;6125594;23;20013;-92
2023/05/24 12:23:54;;;;;;;14.07;3.58;;;13.80;65.30;;;;;;6110111;23;20025;-92
2023/05/24 12:26:23;;;;;;;18.67;4.00;;;13.70;65.10;;;;;;6099690;23;20771;-95
2023/05/24 12:28:54;;;;;;;16.42;4.00;;;13.60;65.10;;;;;;6118445;23;20025;-91
2023/05/24 12:31:20;;;;;;;12.60;3.50;;;13.70;65.10;;;;;;6119889;23;20087;-93
2023/05/24 12:33:49;;;;;;;13.02;3.45;;;13.60;65.10;;;;;;6089891;23;20083;-92
2023/05/24 12:36:16;;;;;;;10.65;3.80;;;13.60;65.30;;;;;;6120472;23;20133;-93
2023/05/24 12:38:42;;;;;;;11.48;3.88;;;13.70;65.60;;;;;;6119889;23;20456;-94
2023/05/24 12:41:10;;;;;;;12.75;3.30;;;13.70;65.40;;;;;;6122161;23;20021;-91
2023/05/24 12:43:37;;;;;;;12.75;3.28;;;13.70;65.20;;;;;;6100219;23;20047;-90
2023/05/24 12:46:03;;;;;;;13.90;3.38;;;13.70;65.20;;;;;;6125994;23;20087;-91
2023/05/24 12:48:48;;;;;;;16.58;3.97;;;13.80;65.30;;;;;;6061923;23;20014;-92
2023/05/24 12:51:13;;;;;;;12.60;2.90;;;13.90;65.50;;;;;;6146132;23;20025;-90
2023/05/24 12:53:40;;;;;;;14.00;3.42;;;13.90;65.20;;;;;;6118749;23;20056;-92
2023/05/24 12:56:07;;;;;;;10.48;3.08;;;13.90;65.00;;;;;;6126112;23;20040;-90
2023/05/24 12:58:33;;;;;;;14.93;4.20;;;13.90;65.20;;;;;;6100967;23;20021;-91
2023/05/24 13:00:59;;;;;;;13.15;4.05;;;13.90;65.30;;;;;;6170471;23;20642;-94
2023/05/24 13:03:27;;;;;;;15.27;4.47;;;13.90;65.40;;;;;;6120266;23;20567;-91
2023/05/24 13:05:56;;;;;;;16.25;4.35;;;13.90;65.70;;;;;;6116151;23;20562;-95
2023/05/24 13:08:31;;;;;;;;;;;;;;;;;;;;;
2023/05/24 13:10:57;;;;;;;15.30;4.10;;;13.90;65.70;;;;;;6147040;23;20017;-92
2023/05/24 13:13:27;;;;;;;14.13;4.20;;;13.90;65.80;;;;;;6121326;23;20731;-92
2023/05/24 13:15:53;;;;;;;16.52;3.70;;;13.90;65.70;;;;;;6120086;23;20023;-93
2023/05/24 13:18:19;;;;;;;15.95;3.80;;;13.90;66.10;;;;;;6096271;23;20112;-94
2023/05/24 13:20:45;;;;;;;14.23;3.65;;;14.10;65.90;;;;;;6124008;23;20013;-92
2023/05/24 13:23:11;;;;;;;11.13;3.58;;;14.20;65.60;;;;;;6096682;23;20021;-91